createdAt,value
2019-03-17T00:01:15.464Z,99.90
2019-03-17T00:03:45.263Z,99.90
2019-03-17T00:06:14.683Z,99.90
2019-03-17T00:08:44.283Z,99.90
2019-03-17T00:11:14.083Z,99.90
2019-03-17T00:13:44.604Z,99.90
2019-03-17T00:16:13.886Z,99.90
2019-03-17T00:18:47.130Z,99.90
2019-03-17T00:21:17.341Z,99.90
2019-03-17T00:23:46.524Z,99.90
2019-03-17T00:26:19.245Z,99.90
2019-03-17T00:28:48.623Z,99.90
2019-03-17T00:31:24.109Z,99.90
2019-03-17T00:33:51.307Z,99.90
2019-03-17T00:36:20.299Z,99.90
2019-03-17T00:38:50.519Z,99.90
2019-03-17T00:41:19.741Z,99.90
2019-03-17T00:43:49.279Z,99.90
2019-03-17T00:46:18.786Z,99.90
2019-03-17T00:48:48.459Z,99.90
2019-03-17T00:51:21.501Z,99.90
2019-03-17T00:53:50.838Z,99.90
2019-03-17T00:56:20.126Z,99.90
2019-03-17T00:58:50.481Z,99.90
2019-03-17T01:01:19.602Z,99.90
2019-03-17T01:03:48.621Z,99.90
2019-03-17T01:06:18.627Z,99.90
2019-03-17T01:08:47.599Z,99.90
2019-03-17T01:11:18.007Z,99.90
2019-03-17T01:13:47.335Z,99.90
2019-03-17T01:16:16.269Z,99.90
2019-03-17T01:18:45.424Z,99.90
2019-03-17T01:21:14.780Z,99.90
2019-03-17T01:23:44.025Z,99.90
2019-03-17T01:26:14.139Z,99.90
2019-03-17T01:28:43.566Z,99.90
2019-03-17T01:31:12.586Z,99.90
2019-03-17T01:33:41.607Z,99.90
2019-03-17T01:36:10.584Z,99.90
2019-03-17T01:38:39.809Z,99.90
2019-03-17T01:41:09.082Z,99.90
2019-03-17T01:43:38.533Z,99.90
2019-03-17T01:46:07.909Z,99.90
2019-03-17T01:48:36.999Z,99.90
2019-03-17T01:51:06.059Z,99.90
2019-03-17T01:53:35.169Z,99.90
2019-03-17T01:56:04.167Z,99.90
2019-03-17T01:58:33.447Z,99.90
2019-03-17T02:01:02.572Z,99.90
2019-03-17T02:03:31.766Z,99.90
2019-03-17T02:06:00.934Z,99.90
2019-03-17T02:08:30.181Z,99.90
2019-03-17T02:10:59.361Z,99.90
2019-03-17T02:13:28.421Z,99.90
2019-03-17T02:15:57.559Z,99.90
2019-03-17T02:18:26.844Z,99.90
2019-03-17T02:20:55.920Z,99.90
2019-03-17T02:23:25.161Z,99.90
2019-03-17T02:25:54.441Z,99.90
2019-03-17T02:28:23.822Z,99.90
2019-03-17T02:30:52.888Z,99.90
2019-03-17T02:33:22.148Z,99.90
2019-03-17T02:35:51.231Z,99.90
2019-03-17T02:38:23.543Z,99.90
2019-03-17T02:40:52.740Z,99.90
2019-03-17T02:43:21.723Z,99.90
2019-03-17T02:45:50.693Z,99.90
2019-03-17T02:48:20.020Z,99.90
2019-03-17T02:50:49.474Z,99.90
2019-03-17T02:53:18.781Z,99.90
2019-03-17T02:55:47.960Z,99.90
2019-03-17T02:58:16.921Z,99.90
2019-03-17T03:00:46.200Z,99.90
2019-03-17T03:03:15.492Z,99.90
2019-03-17T03:05:54.644Z,99.90
2019-03-17T03:08:15.289Z,99.90
2019-03-17T03:10:45.078Z,99.90
2019-03-17T03:13:14.605Z,99.90
2019-03-17T03:15:45.801Z,99.90
2019-03-17T03:18:15.071Z,99.90
2019-03-17T03:20:44.386Z,99.90
2019-03-17T03:23:15.462Z,99.90
2019-03-17T03:25:44.411Z,99.90
2019-03-17T03:28:13.737Z,99.90
2019-03-17T03:30:43.050Z,99.90
2019-03-17T03:33:12.118Z,99.90
2019-03-17T03:35:41.304Z,99.90
2019-03-17T03:38:11.460Z,99.90
2019-03-17T03:40:41.302Z,99.90
2019-03-17T03:43:10.472Z,99.90
2019-03-17T03:45:39.644Z,99.90
2019-03-17T03:48:08.808Z,99.90
2019-03-17T03:50:38.059Z,99.90
2019-03-17T03:53:07.252Z,99.90
2019-03-17T03:55:36.434Z,99.90
2019-03-17T03:58:06.942Z,99.90
2019-03-17T04:00:35.961Z,99.90
2019-03-17T04:03:05.301Z,99.90
2019-03-17T04:05:34.461Z,99.90
2019-03-17T04:08:03.740Z,99.90
2019-03-17T04:10:32.858Z,99.90
2019-03-17T04:13:01.973Z,99.90
2019-03-17T04:15:31.121Z,99.90
2019-03-17T04:18:00.268Z,99.90
2019-03-17T04:20:29.343Z,99.90
2019-03-17T04:22:58.579Z,99.90
2019-03-17T04:25:27.741Z,99.90
2019-03-17T04:27:56.936Z,99.90
2019-03-17T04:30:26.003Z,99.90
2019-03-17T04:32:55.089Z,99.90
2019-03-17T04:35:24.419Z,99.90
2019-03-17T04:37:53.820Z,99.90
2019-03-17T04:40:23.139Z,99.90
2019-03-17T04:42:52.206Z,99.90
2019-03-17T04:45:21.224Z,99.90
2019-03-17T04:47:50.346Z,99.90
2019-03-17T04:50:19.450Z,99.90
2019-03-17T04:52:48.641Z,99.90
2019-03-17T04:55:18.168Z,99.90
2019-03-17T04:57:47.317Z,99.90
2019-03-17T05:00:16.415Z,99.90
2019-03-17T05:02:48.647Z,99.90
2019-03-17T05:05:17.827Z,99.90
2019-03-17T05:07:46.853Z,99.90
2019-03-17T05:10:16.106Z,99.90
2019-03-17T05:12:45.055Z,99.90
2019-03-17T05:15:14.151Z,99.90
2019-03-17T05:17:43.558Z,99.90
2019-03-17T05:20:12.807Z,99.90
2019-03-17T05:22:42.261Z,99.90
2019-03-17T05:25:11.472Z,99.90
2019-03-17T05:27:40.658Z,99.90
2019-03-17T05:30:13.423Z,99.90
2019-03-17T05:32:43.573Z,99.90
2019-03-17T05:35:12.893Z,99.90
2019-03-17T05:37:42.102Z,99.90
2019-03-17T05:40:11.580Z,99.90
2019-03-17T05:42:41.193Z,99.90
2019-03-17T05:45:10.550Z,99.90
2019-03-17T05:47:39.808Z,99.90
2019-03-17T05:50:11.221Z,99.90
2019-03-17T05:52:40.518Z,99.90
2019-03-17T05:55:10.378Z,99.90
2019-03-17T05:57:39.632Z,99.90
2019-03-17T06:00:13.809Z,99.90
2019-03-17T06:02:44.017Z,99.90
2019-03-17T06:05:13.240Z,99.90
2019-03-17T06:07:44.192Z,99.90
2019-03-17T06:10:13.385Z,99.90
2019-03-17T06:12:42.585Z,99.90
2019-03-17T06:15:15.200Z,99.90
2019-03-17T06:17:47.562Z,99.90
2019-03-17T06:20:16.571Z,99.90
2019-03-17T06:22:45.659Z,99.90
2019-03-17T06:25:14.839Z,99.90
2019-03-17T06:27:44.099Z,99.90
2019-03-17T06:30:14.345Z,99.90
2019-03-17T06:32:43.494Z,99.90
2019-03-17T06:35:13.885Z,99.90
2019-03-17T06:37:42.963Z,99.90
2019-03-17T06:40:13.384Z,99.90
2019-03-17T06:42:42.580Z,99.90
2019-03-17T06:45:12.003Z,99.90
2019-03-17T06:47:44.825Z,99.90
2019-03-17T06:50:15.729Z,99.90
2019-03-17T06:52:44.883Z,99.90
2019-03-17T06:55:18.141Z,99.90
2019-03-17T06:57:47.399Z,99.90
2019-03-17T07:00:21.375Z,99.90
2019-03-17T07:02:50.600Z,99.90
2019-03-17T07:05:19.821Z,99.90
2019-03-17T07:07:48.816Z,99.90
2019-03-17T07:10:18.013Z,99.90
2019-03-17T07:12:50.290Z,99.90
2019-03-17T07:15:19.510Z,99.90
2019-03-17T07:17:48.585Z,99.90
2019-03-17T07:20:19.944Z,99.90
2019-03-17T07:22:49.134Z,99.90
2019-03-17T07:25:18.322Z,99.90
2019-03-17T07:27:53.754Z,99.90
2019-03-17T07:30:22.967Z,99.90
2019-03-17T07:32:52.092Z,99.90
2019-03-17T07:35:33.819Z,99.90
2019-03-17T07:38:02.894Z,99.90
2019-03-17T07:40:31.902Z,99.90
2019-03-17T07:43:01.130Z,99.90
2019-03-17T07:45:33.234Z,99.90
2019-03-17T07:48:02.419Z,99.90
2019-03-17T07:50:31.757Z,99.90
2019-03-17T07:53:01.097Z,99.90
2019-03-17T07:55:30.419Z,98.20
2019-03-17T07:57:59.867Z,90.00
2019-03-17T08:00:32.242Z,83.60
2019-03-17T08:03:00.304Z,81.10
2019-03-17T08:05:29.256Z,80.30
2019-03-17T08:08:09.206Z,77.40
2019-03-17T08:10:31.268Z,85.50
2019-03-17T08:13:00.485Z,92.50
2019-03-17T08:15:29.686Z,96.10
2019-03-17T08:17:58.879Z,99.90
2019-03-17T08:20:28.226Z,99.90
2019-03-17T08:22:57.439Z,99.90
2019-03-17T08:25:26.710Z,99.90
2019-03-17T08:27:57.372Z,99.90
2019-03-17T08:30:26.543Z,99.90
2019-03-17T08:32:55.656Z,99.90
2019-03-17T08:35:25.003Z,99.90
2019-03-17T08:37:54.196Z,99.90
2019-03-17T08:40:23.340Z,99.90
2019-03-17T08:42:52.892Z,99.90
2019-03-17T08:45:22.279Z,99.90
2019-03-17T08:47:58.183Z,99.90
2019-03-17T08:50:26.213Z,99.90
2019-03-17T08:52:57.321Z,99.90
2019-03-17T08:55:27.163Z,99.90
2019-03-17T08:57:56.818Z,99.90
2019-03-17T09:00:26.139Z,99.90
2019-03-17T09:02:55.829Z,99.90
2019-03-17T09:05:25.574Z,99.90
2019-03-17T09:07:55.604Z,99.90
2019-03-17T09:10:24.963Z,99.90
2019-03-17T09:12:54.367Z,99.90
2019-03-17T09:15:23.319Z,99.90
2019-03-17T09:17:52.578Z,99.90
2019-03-17T09:20:22.397Z,99.90
2019-03-17T09:22:52.199Z,99.90
2019-03-17T09:25:21.400Z,99.90
2019-03-17T09:27:51.904Z,99.90
2019-03-17T09:30:24.567Z,98.50
2019-03-17T09:32:54.526Z,99.10
2019-03-17T09:35:24.248Z,99.00
2019-03-17T09:37:53.583Z,97.20
2019-03-17T09:40:23.959Z,97.40
2019-03-17T09:42:53.042Z,98.40
2019-03-17T09:45:25.456Z,98.90
2019-03-17T09:47:54.618Z,96.90
2019-03-17T09:50:23.843Z,96.20
2019-03-17T09:52:52.868Z,98.20
2019-03-17T09:55:22.068Z,95.60
2019-03-17T09:57:51.437Z,95.20
2019-03-17T10:00:22.360Z,95.80
2019-03-17T10:02:54.328Z,95.10
2019-03-17T10:05:23.598Z,96.70
2019-03-17T10:07:53.059Z,96.90
2019-03-17T10:10:23.718Z,99.00
2019-03-17T10:12:52.894Z,98.70
2019-03-17T10:15:22.465Z,98.00
2019-03-17T10:17:51.668Z,97.30
2019-03-17T10:20:21.281Z,97.20
2019-03-17T10:22:50.879Z,97.10
2019-03-17T10:25:20.419Z,97.80
2019-03-17T10:27:50.518Z,98.60
2019-03-17T10:30:22.904Z,97.70
2019-03-17T10:32:52.211Z,98.00
2019-03-17T10:35:21.369Z,96.40
2019-03-17T10:37:50.424Z,96.70
2019-03-17T10:40:52.937Z,96.50
2019-03-17T10:43:22.407Z,94.10
2019-03-17T10:45:51.540Z,94.00
2019-03-17T10:48:22.043Z,94.00
2019-03-17T10:50:51.688Z,94.90
2019-03-17T10:53:23.486Z,94.00
2019-03-17T10:55:53.093Z,93.70
2019-03-17T10:58:22.923Z,93.50
2019-03-17T11:00:53.367Z,92.80
2019-03-17T11:03:22.335Z,94.20
2019-03-17T11:05:54.361Z,92.40
2019-03-17T11:08:22.864Z,91.80
2019-03-17T11:10:52.000Z,92.00
2019-03-17T11:13:21.054Z,91.70
2019-03-17T11:15:50.240Z,92.10
2019-03-17T11:18:19.238Z,90.60
2019-03-17T11:20:49.167Z,91.40
2019-03-17T11:23:18.191Z,91.00
2019-03-17T11:25:47.769Z,89.20
2019-03-17T11:28:17.103Z,89.20
2019-03-17T11:30:49.184Z,90.70
2019-03-17T11:33:18.487Z,86.10
2019-03-17T11:35:47.664Z,85.60
2019-03-17T11:38:16.728Z,85.90
2019-03-17T11:40:45.981Z,85.90
2019-03-17T11:43:15.207Z,82.50
2019-03-17T11:45:51.296Z,78.80
2019-03-17T11:48:20.445Z,82.30
2019-03-17T11:50:49.572Z,79.20
2019-03-17T11:53:18.727Z,73.60
2019-03-17T11:55:47.852Z,74.00
2019-03-17T11:58:17.146Z,74.80
2019-03-17T12:00:46.263Z,75.30
2019-03-17T12:03:15.542Z,74.10
2019-03-17T12:05:44.663Z,78.60
2019-03-17T12:08:13.724Z,76.70
2019-03-17T12:10:43.098Z,74.00
2019-03-17T12:13:12.203Z,75.00
2019-03-17T12:15:41.527Z,77.10
2019-03-17T12:18:10.688Z,75.60
2019-03-17T12:20:58.338Z,75.10
2019-03-17T12:23:27.613Z,74.00
2019-03-17T12:26:02.926Z,73.30
2019-03-17T12:28:32.327Z,73.80
2019-03-17T12:31:02.055Z,73.70
2019-03-17T12:33:31.589Z,73.20
2019-03-17T12:36:01.161Z,71.80
2019-03-17T12:38:33.724Z,71.00
2019-03-17T12:41:03.139Z,70.10
2019-03-17T12:43:32.244Z,68.00
2019-03-17T12:46:01.528Z,70.70
2019-03-17T12:48:30.924Z,68.40
2019-03-17T12:51:00.355Z,67.70
2019-03-17T12:53:31.658Z,67.60
2019-03-17T12:56:01.047Z,66.60
2019-03-17T12:58:30.223Z,67.90
2019-03-17T13:00:59.939Z,68.40
2019-03-17T13:03:29.077Z,67.40
2019-03-17T13:05:58.309Z,63.80
2019-03-17T13:08:27.701Z,66.90
2019-03-17T13:10:57.411Z,64.50
2019-03-17T13:13:26.980Z,63.70
2019-03-17T13:15:56.046Z,64.50
2019-03-17T13:18:25.563Z,62.50
2019-03-17T13:20:55.332Z,60.30
2019-03-17T13:23:27.512Z,63.10
2019-03-17T13:25:56.900Z,64.00
2019-03-17T13:28:29.323Z,62.70
2019-03-17T13:31:00.843Z,61.60
2019-03-17T13:33:35.774Z,62.30
2019-03-17T13:36:13.063Z,62.40
2019-03-17T13:38:45.687Z,63.60
2019-03-17T13:41:17.938Z,64.00
2019-03-17T13:43:49.863Z,63.90
2019-03-17T13:46:22.324Z,64.30
2019-03-17T13:48:51.535Z,64.80
2019-03-17T13:51:21.637Z,64.50
2019-03-17T13:53:51.305Z,66.40
2019-03-17T13:56:23.645Z,65.70
2019-03-17T13:58:53.302Z,66.30
2019-03-17T14:01:22.967Z,66.60
2019-03-17T14:03:54.779Z,68.60
2019-03-17T14:06:23.727Z,67.70
2019-03-17T14:08:53.103Z,68.30
2019-03-17T14:11:22.407Z,67.40
2019-03-17T14:13:52.089Z,68.70
2019-03-17T14:16:21.578Z,68.80
2019-03-17T14:18:51.623Z,67.10
2019-03-17T14:21:24.345Z,68.80
2019-03-17T14:23:56.007Z,68.10
2019-03-17T14:26:27.702Z,68.00
2019-03-17T14:28:56.983Z,68.20
2019-03-17T14:31:27.329Z,68.40
2019-03-17T14:33:58.187Z,67.10
2019-03-17T14:36:27.375Z,67.30
2019-03-17T14:38:57.404Z,68.00
2019-03-17T14:41:26.783Z,68.40
2019-03-17T14:43:56.561Z,67.20
2019-03-17T14:46:27.227Z,66.70
2019-03-17T14:48:57.323Z,67.00
2019-03-17T14:51:26.851Z,66.80
2019-03-17T14:53:59.863Z,65.60
2019-03-17T14:56:33.179Z,66.10
2019-03-17T14:59:08.825Z,67.10
2019-03-17T15:01:40.240Z,66.30
2019-03-17T15:04:13.463Z,67.30
2019-03-17T15:06:43.504Z,66.40
2019-03-17T15:09:13.002Z,67.00
2019-03-17T15:11:42.130Z,67.70
2019-03-17T15:14:11.394Z,66.50
2019-03-17T15:16:40.923Z,66.80
2019-03-17T15:19:10.926Z,67.50
2019-03-17T15:21:40.452Z,67.00
2019-03-17T15:24:09.938Z,67.10
2019-03-17T15:26:40.888Z,65.90
2019-03-17T15:29:10.266Z,65.70
2019-03-17T15:31:43.328Z,66.40
2019-03-17T15:34:12.744Z,66.40
2019-03-17T15:36:43.287Z,66.20
2019-03-17T15:39:13.563Z,66.40
2019-03-17T15:41:42.810Z,65.90
2019-03-17T15:44:12.481Z,65.50
2019-03-17T15:46:41.990Z,66.00
2019-03-17T15:49:11.303Z,66.10
2019-03-17T15:51:40.766Z,66.50
2019-03-17T15:54:10.183Z,67.10
2019-03-17T15:56:40.865Z,66.10
2019-03-17T15:59:09.972Z,66.30
2019-03-17T16:01:39.441Z,66.60
2019-03-17T16:04:10.293Z,66.40
2019-03-17T16:06:39.768Z,66.90
2019-03-17T16:09:09.303Z,66.70
2019-03-17T16:11:42.648Z,67.30
2019-03-17T16:14:11.890Z,67.20
2019-03-17T16:16:41.573Z,67.40
2019-03-17T16:19:11.310Z,67.40
2019-03-17T16:21:42.584Z,68.00
2019-03-17T16:24:11.765Z,68.30
2019-03-17T16:26:41.616Z,68.50
2019-03-17T16:29:10.784Z,69.20
2019-03-17T16:31:40.370Z,69.20
2019-03-17T16:34:09.582Z,69.00
2019-03-17T16:36:38.961Z,69.40
2019-03-17T16:39:10.168Z,70.00
2019-03-17T16:41:43.633Z,70.30
2019-03-17T16:44:13.199Z,70.30
2019-03-17T16:46:43.053Z,71.00
2019-03-17T16:49:12.259Z,70.70
2019-03-17T16:51:41.693Z,71.30
2019-03-17T16:54:11.956Z,71.00
2019-03-17T16:56:41.883Z,71.60
2019-03-17T16:59:11.786Z,72.00
2019-03-17T17:01:41.403Z,72.20
2019-03-17T17:04:11.004Z,72.90
2019-03-17T17:06:41.524Z,73.30
2019-03-17T17:09:11.293Z,74.10
2019-03-17T17:11:41.312Z,74.40
2019-03-17T17:14:10.651Z,74.90
2019-03-17T17:16:40.037Z,75.30
2019-03-17T17:19:09.344Z,76.10
2019-03-17T17:21:38.748Z,76.30
2019-03-17T17:24:08.270Z,74.70
2019-03-17T17:26:37.899Z,68.40
2019-03-17T17:29:07.751Z,66.70
2019-03-17T17:31:36.925Z,65.30
2019-03-17T17:34:06.592Z,63.20
2019-03-17T17:36:36.317Z,61.90
2019-03-17T17:39:11.315Z,61.90
2019-03-17T17:41:40.893Z,63.60
2019-03-17T17:44:10.153Z,63.80
2019-03-17T17:46:40.097Z,63.90
2019-03-17T17:49:09.772Z,63.80
2019-03-17T17:51:39.064Z,64.20
2019-03-17T17:54:11.133Z,64.10
2019-03-17T17:56:40.572Z,65.20
2019-03-17T17:59:10.168Z,66.00
2019-03-17T18:01:39.505Z,66.30
2019-03-17T18:04:08.856Z,66.40
2019-03-17T18:06:38.484Z,67.00
2019-03-17T18:09:08.444Z,67.40
2019-03-17T18:11:37.984Z,67.60
2019-03-17T18:14:10.439Z,68.30
2019-03-17T18:16:41.540Z,69.00
2019-03-17T18:19:11.393Z,69.90
2019-03-17T18:21:42.462Z,69.70
2019-03-17T18:24:12.326Z,69.20
2019-03-17T18:26:46.444Z,70.00
2019-03-17T18:29:27.584Z,70.20
2019-03-17T18:31:57.212Z,70.30
2019-03-17T18:34:26.811Z,70.80
2019-03-17T18:36:56.851Z,71.10
2019-03-17T18:39:26.603Z,72.20
2019-03-17T18:41:56.650Z,72.20
2019-03-17T18:44:26.305Z,72.70
2019-03-17T18:46:56.225Z,73.30
2019-03-17T18:49:25.816Z,73.00
2019-03-17T18:51:55.033Z,73.50
2019-03-17T18:54:24.345Z,73.60
2019-03-17T18:56:53.625Z,73.60
2019-03-17T18:59:22.941Z,73.80
2019-03-17T19:01:52.575Z,74.60
2019-03-17T19:04:22.872Z,74.20
2019-03-17T19:06:55.405Z,74.00
2019-03-17T19:09:25.971Z,73.90
2019-03-17T19:11:56.044Z,74.10
2019-03-17T19:14:25.360Z,73.60
2019-03-17T19:16:55.232Z,73.50
2019-03-17T19:19:25.954Z,74.10
2019-03-17T19:21:57.292Z,74.60
2019-03-17T19:24:30.158Z,74.20
2019-03-17T19:27:00.447Z,73.40
2019-03-17T19:29:34.064Z,74.00
2019-03-17T19:32:03.480Z,74.20
2019-03-17T19:34:34.564Z,74.30
2019-03-17T19:37:05.383Z,74.90
2019-03-17T19:39:35.581Z,75.70
2019-03-17T19:42:06.858Z,76.00
2019-03-17T19:44:37.179Z,76.30
2019-03-17T19:47:09.599Z,76.90
2019-03-17T19:49:41.089Z,77.30
2019-03-17T19:52:10.766Z,77.40
2019-03-17T19:54:41.909Z,77.70
2019-03-17T19:57:11.402Z,77.80
2019-03-17T19:59:41.137Z,77.80
2019-03-17T20:02:13.836Z,77.30
2019-03-17T20:04:43.199Z,77.00
2019-03-17T20:07:12.582Z,77.10
2019-03-17T20:09:41.902Z,77.40
2019-03-17T20:12:11.225Z,77.70
2019-03-17T20:14:42.121Z,78.30
2019-03-17T20:17:11.941Z,78.30
2019-03-17T20:19:41.520Z,78.40
2019-03-17T20:22:11.998Z,78.70
2019-03-17T20:24:43.200Z,78.80
2019-03-17T20:27:13.158Z,78.80
2019-03-17T20:29:43.484Z,79.00
2019-03-17T20:32:13.253Z,79.60
2019-03-17T20:34:43.380Z,79.90
2019-03-17T20:37:13.000Z,80.40
2019-03-17T20:39:42.519Z,80.70
2019-03-17T20:42:12.163Z,81.20
2019-03-17T20:44:41.839Z,81.60
2019-03-17T20:47:12.158Z,81.70
2019-03-17T20:49:41.643Z,81.90
2019-03-17T20:52:11.039Z,82.20
2019-03-17T20:54:40.412Z,82.70
2019-03-17T20:57:09.825Z,83.20
2019-03-17T20:59:39.086Z,83.50
2019-03-17T21:02:08.701Z,84.10
2019-03-17T21:04:38.669Z,84.00
2019-03-17T21:07:08.381Z,84.10
2019-03-17T21:09:37.880Z,84.30
2019-03-17T21:12:07.153Z,85.10
2019-03-17T21:14:36.546Z,85.40
2019-03-17T21:17:05.887Z,86.30
2019-03-17T21:19:35.462Z,86.60
2019-03-17T21:22:08.690Z,87.30
2019-03-17T21:24:39.598Z,88.10
2019-03-17T21:27:12.680Z,88.50
2019-03-17T21:29:41.962Z,89.50
2019-03-17T21:32:11.383Z,90.00
2019-03-17T21:34:40.983Z,90.50
2019-03-17T21:37:11.604Z,90.60
2019-03-17T21:39:40.839Z,90.90
2019-03-17T21:42:09.917Z,91.00
2019-03-17T21:44:39.169Z,91.40
2019-03-17T21:47:08.626Z,91.50
2019-03-17T21:49:37.966Z,91.70
2019-03-17T21:52:07.878Z,92.10
2019-03-17T21:54:37.191Z,92.00
2019-03-17T21:57:07.088Z,92.60
2019-03-17T21:59:36.769Z,92.70
2019-03-17T22:02:12.821Z,92.90
2019-03-17T22:04:37.052Z,93.10
2019-03-17T22:07:06.539Z,92.90
2019-03-17T22:09:35.957Z,93.00
2019-03-17T22:12:05.289Z,93.10
2019-03-17T22:14:34.418Z,93.30
2019-03-17T22:17:03.752Z,93.60
2019-03-17T22:19:32.864Z,94.20
2019-03-17T22:22:03.259Z,94.30
2019-03-17T22:24:32.944Z,94.50
2019-03-17T22:27:03.349Z,94.90
2019-03-17T22:29:33.848Z,95.30
2019-03-17T22:32:04.364Z,95.50
2019-03-17T22:34:36.663Z,95.60
2019-03-17T22:37:07.865Z,95.80
2019-03-17T22:39:36.990Z,95.80
2019-03-17T22:42:15.860Z,95.70
2019-03-17T22:44:44.168Z,95.70
2019-03-17T22:47:14.264Z,95.50
2019-03-17T22:49:44.001Z,95.50
2019-03-17T22:52:13.801Z,95.50
2019-03-17T22:54:45.020Z,95.50
2019-03-17T22:57:15.344Z,95.60
2019-03-17T22:59:45.392Z,95.90
2019-03-17T23:02:14.506Z,95.90
2019-03-17T23:04:45.289Z,95.90
2019-03-17T23:07:14.354Z,95.90
2019-03-17T23:09:43.619Z,95.80
2019-03-17T23:12:14.670Z,95.80
2019-03-17T23:14:43.919Z,96.00
2019-03-17T23:17:14.099Z,96.10
2019-03-17T23:19:44.113Z,96.10
2019-03-17T23:22:13.243Z,96.10
2019-03-17T23:24:42.503Z,96.10
2019-03-17T23:27:11.409Z,96.10
2019-03-17T23:29:40.351Z,96.00
2019-03-17T23:32:09.601Z,96.10
2019-03-17T23:34:38.619Z,96.00
2019-03-17T23:37:08.079Z,96.30
2019-03-17T23:39:43.267Z,96.30
2019-03-17T23:42:12.525Z,95.60
2019-03-17T23:44:48.951Z,95.40
2019-03-17T23:47:14.727Z,95.40
2019-03-17T23:49:44.199Z,95.20
2019-03-17T23:52:13.236Z,94.90
2019-03-17T23:54:42.240Z,95.10
2019-03-17T23:57:11.447Z,95.30
2019-03-17T23:59:40.363Z,94.90
